Time;durP1;ratioP1;P1;durP2;ratioP2;P2;SDS_P1;SDS_P2;PMS_P1;PMS_P2;Temp;Humidity;BMP_temperature;BMP_pressure;BME280_temperature;BME280_humidity;BME280_pressure;Samples;Min_cycle;Max_cycle;Signal;HPM_P1;HPM_P2
2022/05/31 00:00:20;;;;;;;6.97;4.03;;;;;;;;;;6264036;28;20013;-76
2022/05/31 00:03:20;;;;;;;7.30;5.07;;;;;;;;;;6272919;28;20151;-76
2022/05/31 00:06:20;;;;;;;7.53;4.30;;;;;;;;;;6264525;28;20359;-76
2022/05/31 00:09:20;;;;;;;6.63;4.32;;;;;;;;;;6265740;28;20033;-76
2022/05/31 00:12:21;;;;;;;8.18;5.00;;;;;;;;;;6268639;28;20453;-76
2022/05/31 00:15:21;;;;;;;10.13;5.43;;;;;;;;;;6265191;28;20037;-76
2022/05/31 00:18:22;;;;;;;7.70;4.43;;;;;;;;;;6265770;28;20037;-76
2022/05/31 00:21:24;;;;;;;12.93;6.50;;;;;;;;;;6268961;28;20052;-76
2022/05/31 00:24:24;;;;;;;;;;;;;;;;;;6271767;28;20075;-76
2022/05/31 00:27:28;;;;;;;8.18;4.82;;;;;;;;;;6268641;28;19908;-76
2022/05/31 00:30:28;;;;;;;7.65;6.43;;;;;;;;;;6266416;28;20017;-76
2022/05/31 00:33:29;;;;;;;13.82;6.05;;;;;;;;;;6270192;28;20110;-76
2022/05/31 00:36:29;;;;;;;10.48;6.10;;;;;;;;;;6261811;28;20017;-76
2022/05/31 00:39:30;;;;;;;9.88;6.30;;;;;;;;;;6270053;28;20017;-76
2022/05/31 00:42:45;;;;;;;9.65;6.85;;;;;;;;;;6270642;28;20419;-76
2022/05/31 00:45:49;;;;;;;9.35;6.20;;;;;;;;;;6269702;28;20384;-76
2022/05/31 00:48:57;;;;;;;10.70;6.68;;;;;;;;;;6269701;28;20384;-76
2022/05/31 00:52:05;;;;;;;9.80;5.88;;;;;;;;;;6269909;28;20106;-76
2022/05/31 00:55:11;;;;;;;9.52;5.88;;;;;;;;;;6268672;28;20024;-76
2022/05/31 00:58:17;;;;;;;7.47;5.10;;;;;;;;;;6268578;28;20021;-76
2022/05/31 01:01:18;;;;;;;10.18;6.28;;;;;;;;;;6263190;28;20009;-76
2022/05/31 01:04:25;;;;;;;10.63;6.65;;;;;;;;;;6259518;28;20017;-76
2022/05/31 01:07:25;;;;;;;9.27;6.38;;;;;;;;;;6264288;28;20381;-76
2022/05/31 01:10:26;;;;;;;11.40;7.90;;;;;;;;;;6266092;28;20086;-76
2022/05/31 01:13:27;;;;;;;10.52;6.85;;;;;;;;;;6270400;28;20063;-76
2022/05/31 01:16:28;;;;;;;13.27;6.63;;;;;;;;;;6267290;28;20388;-76
2022/05/31 01:22:50;;;;;;;10.48;6.78;;;;;;;;;;6260428;28;20295;-76
2022/05/31 01:25:50;;;;;;;10.95;6.55;;;;;;;;;;6264160;28;20026;-76
2022/05/31 01:29:17;;;;;;;11.40;7.30;;;;;;;;;;6268978;28;20029;-76
2022/05/31 01:32:17;;;;;;;13.43;7.18;;;;;;;;;;6262946;28;20071;-76
2022/05/31 01:35:36;;;;;;;11.17;7.13;;;;;;;;;;6269280;28;20021;-76
2022/05/31 01:38:39;;;;;;;12.52;7.45;;;;;;;;;;6263159;28;20256;-76
2022/05/31 01:41:39;;;;;;;13.85;7.05;;;;;;;;;;6270389;28;20051;-76
2022/05/31 01:44:41;;;;;;;10.47;6.60;;;;;;;;;;6270022;28;20059;-76
2022/05/31 01:47:42;;;;;;;13.82;8.43;;;;;;;;;;6269099;28;20021;-76
2022/05/31 01:50:45;;;;;;;11.38;7.72;;;;;;;;;;6269723;28;20102;-76
2022/05/31 01:53:45;;;;;;;15.32;8.07;;;;;;;;;;6268680;28;20028;-76
2022/05/31 01:56:47;;;;;;;11.63;8.00;;;;;;;;;;6272803;28;20364;-76
2022/05/31 01:59:50;;;;;;;13.70;8.20;;;;;;;;;;6273771;28;20020;-76
2022/05/31 02:02:50;;;;;;;;;;;;;;;;;;6268783;28;20056;-76
2022/05/31 02:05:53;;;;;;;16.88;8.52;;;;;;;;;;6271299;28;19905;-76
2022/05/31 02:08:53;;;;;;;13.38;9.25;;;;;;;;;;6270157;28;20025;-76
2022/05/31 02:11:53;;;;;;;18.58;10.10;;;;;;;;;;6272472;28;20465;-76
2022/05/31 02:14:54;;;;;;;29.83;11.32;;;;;;;;;;6271747;28;20068;-76
2022/05/31 02:17:54;;;;;;;14.38;9.52;;;;;;;;;;6273247;28;20013;-76
2022/05/31 02:20:54;;;;;;;17.67;11.77;;;;;;;;;;6266510;28;20084;-76
2022/05/31 02:23:54;;;;;;;15.85;11.05;;;;;;;;;;6274578;28;20363;-76
2022/05/31 02:26:55;;;;;;;14.98;10.02;;;;;;;;;;6272860;28;20447;-76
2022/05/31 02:29:56;;;;;;;18.45;11.73;;;;;;;;;;6271514;28;20038;-76
2022/05/31 02:32:56;;;;;;;16.20;10.55;;;;;;;;;;6274671;28;20029;-76
2022/05/31 02:35:56;;;;;;;17.73;11.83;;;;;;;;;;6275120;28;20463;-78
2022/05/31 02:38:56;;;;;;;15.53;11.60;;;;;;;;;;6270175;28;20286;-79
2022/05/31 02:41:57;;;;;;;18.70;10.88;;;;;;;;;;6271579;28;20264;-79
2022/05/31 02:44:58;;;;;;;13.43;9.00;;;;;;;;;;6273802;28;20028;-79
2022/05/31 02:47:58;;;;;;;16.00;9.43;;;;;;;;;;6272708;28;20451;-79
2022/05/31 02:50:58;;;;;;;17.90;10.73;;;;;;;;;;6273836;28;20056;-79
2022/05/31 02:53:58;;;;;;;15.02;8.82;;;;;;;;;;6269450;28;20292;-78
2022/05/31 02:56:59;;;;;;;14.50;9.52;;;;;;;;;;6264855;28;20017;-79
2022/05/31 02:59:59;;;;;;;15.40;9.23;;;;;;;;;;6271169;28;20404;-79
2022/05/31 03:02:59;;;;;;;15.18;9.10;;;;;;;;;;6272021;28;20024;-79
2022/05/31 03:05:59;;;;;;;15.10;10.45;;;;;;;;;;6270219;28;20311;-79
2022/05/31 03:08:59;;;;;;;14.87;10.33;;;;;;;;;;6272060;28;20051;-79
2022/05/31 03:12:03;;;;;;;19.63;11.03;;;;;;;;;;6270013;28;20259;-78
2022/05/31 03:15:06;;;;;;;16.25;9.95;;;;;;;;;;6272368;28;20283;-78
2022/05/31 03:18:13;;;;;;;17.25;11.52;;;;;;;;;;6268442;28;20378;-79
2022/05/31 03:21:16;;;;;;;18.70;12.55;;;;;;;;;;6272621;28;20049;-79
2022/05/31 03:24:18;;;;;;;13.82;10.02;;;;;;;;;;6272237;28;20027;-79
2022/05/31 03:27:18;;;;;;;19.52;10.20;;;;;;;;;;6273874;28;20024;-78
2022/05/31 03:30:19;;;;;;;17.20;11.55;;;;;;;;;;6270403;28;20025;-79
2022/05/31 03:33:19;;;;;;;15.27;10.90;;;;;;;;;;6271414;28;20103;-78
2022/05/31 03:36:20;;;;;;;17.70;12.05;;;;;;;;;;6273665;28;20032;-79
2022/05/31 03:39:20;;;;;;;15.30;9.77;;;;;;;;;;6272147;28;20021;-79
2022/05/31 03:42:20;;;;;;;17.58;12.23;;;;;;;;;;6271465;28;20500;-79
2022/05/31 03:45:20;;;;;;;18.52;12.02;;;;;;;;;;6274284;28;20368;-79
2022/05/31 03:48:21;;;;;;;17.47;10.33;;;;;;;;;;6272426;28;20024;-79
2022/05/31 03:51:21;;;;;;;16.30;11.50;;;;;;;;;;6273452;28;20312;-79
2022/05/31 03:54:21;;;;;;;15.47;9.73;;;;;;;;;;6268613;28;20388;-78
2022/05/31 03:57:21;;;;;;;16.73;10.65;;;;;;;;;;6272531;28;20854;-77
2022/05/31 04:00:22;;;;;;;14.73;10.18;;;;;;;;;;6273477;28;20017;-77
2022/05/31 04:03:22;;;;;;;16.02;9.43;;;;;;;;;;6270563;28;20024;-78
2022/05/31 04:06:23;;;;;;;17.42;10.68;;;;;;;;;;6272237;28;20025;-78
2022/05/31 04:09:23;;;;;;;20.48;11.55;;;;;;;;;;6270857;28;20025;-78
2022/05/31 04:12:23;;;;;;;18.60;11.63;;;;;;;;;;6270242;28;20102;-79
2022/05/31 04:15:23;;;;;;;14.55;10.30;;;;;;;;;;6272551;28;20087;-78
2022/05/31 04:18:24;;;;;;;16.67;10.57;;;;;;;;;;6270897;28;20028;-78
2022/05/31 04:21:24;;;;;;;14.30;10.43;;;;;;;;;;6271551;28;20292;-77
2022/05/31 04:24:25;;;;;;;14.03;10.30;;;;;;;;;;6272404;28;20395;-77
2022/05/31 04:27:25;;;;;;;14.70;9.82;;;;;;;;;;6271084;28;20263;-78
2022/05/31 04:30:25;;;;;;;18.43;11.23;;;;;;;;;;6271444;28;20032;-78
2022/05/31 04:33:26;;;;;;;14.33;9.03;;;;;;;;;;6270085;28;20275;-78
2022/05/31 04:36:27;;;;;;;16.95;9.25;;;;;;;;;;6267945;28;20683;-79
2022/05/31 04:39:27;;;;;;;13.50;8.68;;;;;;;;;;6258439;28;20055;-77
2022/05/31 04:42:27;;;;;;;16.43;9.23;;;;;;;;;;6259817;28;20113;-77
2022/05/31 04:45:28;;;;;;;11.32;8.13;;;;;;;;;;6267856;28;20267;-78
2022/05/31 04:48:28;;;;;;;14.10;8.80;;;;;;;;;;6268659;28;20029;-77
2022/05/31 04:51:30;;;;;;;13.50;8.10;;;;;;;;;;6266257;28;20040;-77
2022/05/31 04:54:30;;;;;;;13.85;8.00;;;;;;;;;;6266883;28;20283;-77
2022/05/31 04:57:30;;;;;;;15.07;8.02;;;;;;;;;;6265707;28;20033;-77
2022/05/31 05:00:31;;;;;;;10.40;6.47;;;;;;;;;;6263794;28;20060;-78
2022/05/31 05:03:31;;;;;;;11.15;6.50;;;;;;;;;;6261419;28;20268;-77
2022/05/31 05:06:31;;;;;;;9.13;6.07;;;;;;;;;;6258180;28;20021;-77
2022/05/31 05:09:31;;;;;;;10.18;6.07;;;;;;;;;;6261556;28;20044;-77
2022/05/31 05:12:32;;;;;;;9.88;5.20;;;;;;;;;;6267515;28;20029;-78
2022/05/31 05:15:32;;;;;;;10.13;5.65;;;;;;;;;;6268637;28;20108;-78
2022/05/31 05:18:34;;;;;;;9.23;5.07;;;;;;;;;;6252952;28;20016;-79
2022/05/31 05:21:34;;;;;;;10.07;4.88;;;;;;;;;;6252934;28;20754;-80
2022/05/31 05:24:35;;;;;;;6.53;4.30;;;;;;;;;;6269843;28;20083;-80
2022/05/31 05:27:35;;;;;;;8.77;3.88;;;;;;;;;;6265438;28;20480;-80
2022/05/31 05:30:38;;;;;;;13.80;5.10;;;;;;;;;;6270053;28;20026;-81
2022/05/31 05:33:40;;;;;;;7.20;4.90;;;;;;;;;;6263023;28;20018;-81
2022/05/31 05:36:40;;;;;;;;;;;;;;;;;;6267487;28;20029;-80
2022/05/31 05:39:40;;;;;;;12.10;4.65;;;;;;;;;;6274894;28;19966;-81
2022/05/31 05:42:41;;;;;;;6.20;4.00;;;;;;;;;;6271968;28;20026;-80
2022/05/31 05:45:42;;;;;;;5.80;4.20;;;;;;;;;;6271067;28;20044;-80
2022/05/31 05:48:42;;;;;;;6.00;3.27;;;;;;;;;;6272105;28;20021;-79
2022/05/31 05:51:44;;;;;;;8.40;3.80;;;;;;;;;;6270168;28;20017;-79
2022/05/31 05:54:44;;;;;;;5.40;3.58;;;;;;;;;;6273644;28;20766;-79
2022/05/31 05:57:44;;;;;;;5.47;3.40;;;;;;;;;;6271595;28;20109;-80
2022/05/31 06:00:52;;;;;;;7.50;3.17;;;;;;;;;;6275251;28;20029;-79
2022/05/31 06:03:56;;;;;;;6.53;3.13;;;;;;;;;;6267151;28;20024;-79
2022/05/31 06:07:07;;;;;;;6.10;2.78;;;;;;;;;;6272439;28;20389;-79
2022/05/31 06:10:11;;;;;;;8.05;3.72;;;;;;;;;;6270284;28;20017;-79
2022/05/31 06:13:24;;;;;;;7.25;3.95;;;;;;;;;;6257865;28;20021;-80
2022/05/31 06:16:26;;;;;;;8.15;4.00;;;;;;;;;;6265346;28;20385;-77
2022/05/31 06:19:31;;;;;;;7.80;3.35;;;;;;;;;;6257774;28;20136;-77
2022/05/31 06:22:32;;;;;;;6.28;3.78;;;;;;;;;;6267726;28;20021;-77
2022/05/31 06:25:32;;;;;;;9.33;3.97;;;;;;;;;;6265447;28;20489;-77
2022/05/31 06:28:32;;;;;;;9.53;4.27;;;;;;;;;;6254705;28;20018;-77
2022/05/31 06:31:32;;;;;;;15.83;4.03;;;;;;;;;;6266568;28;20059;-77
2022/05/31 06:34:32;;;;;;;10.07;4.33;;;;;;;;;;6269923;28;20021;-77
2022/05/31 06:37:33;;;;;;;10.13;3.53;;;;;;;;;;6269522;28;20100;-77
2022/05/31 06:40:33;;;;;;;8.18;3.88;;;;;;;;;;6288024;28;20141;-77
2022/05/31 06:43:34;;;;;;;7.30;3.40;;;;;;;;;;6271782;28;20038;-77
2022/05/31 06:46:34;;;;;;;8.18;3.20;;;;;;;;;;6257158;28;20029;-76
2022/05/31 06:49:35;;;;;;;8.23;3.83;;;;;;;;;;6269953;28;20099;-76
2022/05/31 06:59:17;;;;;;;7.45;3.58;;;;;;;;;;6264475;28;20047;-77
2022/05/31 07:02:18;;;;;;;11.53;4.30;;;;;;;;;;6267021;28;20056;-77
2022/05/31 07:05:19;;;;;;;8.70;3.30;;;;;;;;;;6256471;28;20030;-77
2022/05/31 07:08:19;;;;;;;8.10;2.92;;;;;;;;;;6265868;28;20029;-77
2022/05/31 07:11:20;;;;;;;8.13;3.10;;;;;;;;;;6267521;28;20107;-77
2022/05/31 07:14:20;;;;;;;16.80;4.25;;;;;;;;;;6268401;28;20099;-77
2022/05/31 07:17:21;;;;;;;11.20;2.90;;;;;;;;;;6263730;28;20412;-77
2022/05/31 07:20:21;;;;;;;8.30;3.33;;;;;;;;;;6262694;28;20292;-78
2022/05/31 07:23:21;;;;;;;;;;;;;;;;;;6265117;28;20070;-77
2022/05/31 07:26:22;;;;;;;8.35;3.35;;;;;;;;;;6271024;28;19913;-77
2022/05/31 07:29:22;;;;;;;;;;;;;;;;;;6272844;28;20071;-76
2022/05/31 07:32:22;;;;;;;7.67;3.00;;;;;;;;;;6272754;28;19923;-76
2022/05/31 07:35:23;;;;;;;7.17;2.87;;;;;;;;;;6272077;28;20496;-77
2022/05/31 07:38:23;;;;;;;8.43;4.30;;;;;;;;;;6270581;28;20036;-77
2022/05/31 07:41:23;;;;;;;8.40;2.83;;;;;;;;;;6267904;28;20017;-77
2022/05/31 07:44:25;;;;;;;5.43;2.57;;;;;;;;;;6269161;28;20013;-77
2022/05/31 07:47:25;;;;;;;4.88;2.90;;;;;;;;;;6270203;28;20021;-77
2022/05/31 07:50:26;;;;;;;3.55;2.17;;;;;;;;;;6269105;28;20078;-77
2022/05/31 07:53:26;;;;;;;6.28;1.95;;;;;;;;;;6263885;28;20033;-76
2022/05/31 07:56:27;;;;;;;4.07;2.05;;;;;;;;;;6269219;28;20023;-76
2022/05/31 07:59:28;;;;;;;5.93;2.60;;;;;;;;;;6272374;28;20017;-76
2022/05/31 08:02:28;;;;;;;3.78;1.88;;;;;;;;;;6268553;28;20076;-76
2022/05/31 08:05:30;;;;;;;4.43;2.20;;;;;;;;;;6272757;28;20017;-77
2022/05/31 08:08:30;;;;;;;1.85;1.52;;;;;;;;;;6265687;28;20013;-77
2022/05/31 08:11:31;;;;;;;2.60;1.70;;;;;;;;;;6266963;28;20091;-77
2022/05/31 08:14:31;;;;;;;2.13;1.58;;;;;;;;;;6266617;28;20025;-77
2022/05/31 08:17:32;;;;;;;2.17;1.60;;;;;;;;;;6270773;28;20017;-76
2022/05/31 08:20:32;;;;;;;3.60;2.23;;;;;;;;;;6271176;28;20037;-76
2022/05/31 08:23:32;;;;;;;6.70;2.03;;;;;;;;;;6270849;28;20024;-76
2022/05/31 08:26:33;;;;;;;1.55;1.42;;;;;;;;;;6264216;28;20013;-76
2022/05/31 08:29:33;;;;;;;;;;;;;;;;;;6270653;28;20544;-76
2022/05/31 08:32:34;;;;;;;3.50;1.50;;;;;;;;;;6271005;28;19911;-76
2022/05/31 08:35:34;;;;;;;3.35;1.83;;;;;;;;;;6271595;28;20159;-76
2022/05/31 08:38:35;;;;;;;2.53;1.50;;;;;;;;;;6270766;28;20027;-76
2022/05/31 08:41:43;;;;;;;1.97;1.47;;;;;;;;;;6270990;28;20009;-76
2022/05/31 08:44:46;;;;;;;2.08;1.73;;;;;;;;;;6271006;28;20373;-76
2022/05/31 08:47:47;;;;;;;2.78;1.65;;;;;;;;;;6271803;28;20021;-76
2022/05/31 08:57:34;;;;;;;2.40;1.10;;;;;;;;;;6261343;28;20025;-76
2022/05/31 09:00:38;;;;;;;3.03;1.05;;;;;;;;;;6271580;28;20025;-76
2022/05/31 09:03:44;;;;;;;1.45;1.10;;;;;;;;;;6270317;28;20018;-77
2022/05/31 09:06:47;;;;;;;1.90;1.50;;;;;;;;;;6262424;28;20114;-76
2022/05/31 09:09:51;;;;;;;3.00;1.65;;;;;;;;;;6261101;28;20027;-76
2022/05/31 09:12:57;;;;;;;4.97;2.00;;;;;;;;;;6263778;28;20028;-76
2022/05/31 09:16:00;;;;;;;1.88;1.45;;;;;;;;;;6261231;28;20027;-77
2022/05/31 09:19:02;;;;;;;1.52;1.05;;;;;;;;;;6263272;28;20088;-76
2022/05/31 09:22:03;;;;;;;1.73;1.27;;;;;;;;;;6251976;28;20024;-76
2022/05/31 09:25:05;;;;;;;2.60;1.27;;;;;;;;;;6261088;28;20481;-76
2022/05/31 09:28:13;;;;;;;2.97;1.58;;;;;;;;;;6264979;28;20092;-76
2022/05/31 09:31:19;;;;;;;3.72;1.20;;;;;;;;;;6269119;28;20024;-76
2022/05/31 09:34:28;;;;;;;3.17;1.60;;;;;;;;;;6271129;28;20485;-76
2022/05/31 09:37:47;;;;;;;2.20;1.45;;;;;;;;;;6265082;28;20029;-76
2022/05/31 09:40:47;;;;;;;2.90;1.60;;;;;;;;;;6257825;28;20017;-76
2022/05/31 09:43:50;;;;;;;4.18;1.83;;;;;;;;;;6263295;28;20031;-77
2022/05/31 09:47:11;;;;;;;1.33;1.20;;;;;;;;;;6264782;28;20021;-76
2022/05/31 09:50:11;;;;;;;4.47;1.40;;;;;;;;;;6267700;28;20029;-76
2022/05/31 09:59:51;;;;;;;2.95;1.60;;;;;;;;;;6270749;28;20033;-75
2022/05/31 10:02:57;;;;;;;6.15;1.52;;;;;;;;;;6270569;28;20060;-75
2022/05/31 10:06:12;;;;;;;2.90;2.00;;;;;;;;;;6267165;28;20484;-76
2022/05/31 10:09:17;;;;;;;2.80;1.65;;;;;;;;;;6265448;28;20060;-76
2022/05/31 10:12:27;;;;;;;2.40;1.27;;;;;;;;;;6263257;28;20025;-76
2022/05/31 10:15:30;;;;;;;2.20;1.45;;;;;;;;;;6261180;28;20082;-75
2022/05/31 10:18:31;;;;;;;3.13;1.83;;;;;;;;;;6272028;28;20021;-76
2022/05/31 10:21:40;;;;;;;2.65;1.83;;;;;;;;;;6265214;28;20048;-76
2022/05/31 10:24:40;;;;;;;5.55;1.42;;;;;;;;;;6270138;28;20120;-76
2022/05/31 10:27:40;;;;;;;4.82;1.80;;;;;;;;;;6272545;28;20035;-76
2022/05/31 10:30:40;;;;;;;5.23;2.60;;;;;;;;;;6273348;28;20029;-76
2022/05/31 10:33:51;;;;;;;4.60;1.83;;;;;;;;;;6274647;28;20587;-75
2022/05/31 10:36:56;;;;;;;5.53;1.88;;;;;;;;;;6272547;28;20067;-76
2022/05/31 10:40:05;;;;;;;4.75;1.80;;;;;;;;;;6270891;28;20024;-76
2022/05/31 10:43:26;;;;;;;3.13;1.77;;;;;;;;;;6269954;28;20017;-76
2022/05/31 10:46:27;;;;;;;4.33;2.90;;;;;;;;;;6264829;28;20039;-76
2022/05/31 10:49:28;;;;;;;1.98;1.67;;;;;;;;;;6273876;28;20489;-76
2022/05/31 10:52:37;;;;;;;2.33;1.53;;;;;;;;;;6269912;28;20028;-76
2022/05/31 10:55:39;;;;;;;3.42;1.45;;;;;;;;;;6266696;28;20033;-76
2022/05/31 10:58:52;;;;;;;1.92;1.17;;;;;;;;;;6261892;28;20503;-76
2022/05/31 11:01:53;;;;;;;3.22;1.88;;;;;;;;;;6273595;28;20404;-76
2022/05/31 11:04:53;;;;;;;2.43;1.50;;;;;;;;;;6272763;28;20016;-75
2022/05/31 11:11:41;;;;;;;2.78;1.35;;;;;;;;;;6270308;28;20065;-75
2022/05/31 11:14:42;;;;;;;3.05;1.63;;;;;;;;;;6269308;28;20094;-76
2022/05/31 11:17:52;;;;;;;2.28;1.45;;;;;;;;;;6267231;28;20021;-76
2022/05/31 11:20:58;;;;;;;2.60;1.58;;;;;;;;;;6272306;28;20523;-76
2022/05/31 11:24:07;;;;;;;2.60;1.60;;;;;;;;;;6266345;28;20029;-76
2022/05/31 11:27:07;;;;;;;2.40;1.80;;;;;;;;;;6271531;28;20017;-76
2022/05/31 11:30:13;;;;;;;3.42;1.60;;;;;;;;;;6261982;28;20060;-76
2022/05/31 11:33:14;;;;;;;2.20;1.45;;;;;;;;;;6265308;28;20020;-76
2022/05/31 11:36:32;;;;;;;3.28;1.70;;;;;;;;;;6265747;28;20017;-76
2022/05/31 11:39:35;;;;;;;1.60;1.50;;;;;;;;;;6259052;28;20021;-76
2022/05/31 11:42:44;;;;;;;3.83;1.50;;;;;;;;;;6266143;28;20021;-76
2022/05/31 11:46:03;;;;;;;3.47;1.50;;;;;;;;;;6261127;28;20884;-76
2022/05/31 11:49:04;;;;;;;3.42;2.35;;;;;;;;;;6270209;28;20017;-76
2022/05/31 11:52:23;;;;;;;2.80;1.88;;;;;;;;;;6265230;28;20036;-76
2022/05/31 11:55:28;;;;;;;2.28;1.50;;;;;;;;;;6260101;28;20117;-76
2022/05/31 11:58:38;;;;;;;5.18;1.58;;;;;;;;;;6262306;28;20028;-76
2022/05/31 12:01:41;;;;;;;3.00;1.52;;;;;;;;;;6268216;28;20032;-76
2022/05/31 12:04:59;;;;;;;4.32;1.75;;;;;;;;;;6265362;28;20032;-76
2022/05/31 12:08:08;;;;;;;5.22;1.60;;;;;;;;;;6262204;28;20060;-75
2022/05/31 12:11:12;;;;;;;2.03;1.60;;;;;;;;;;6275707;28;20493;-75
2022/05/31 12:14:13;;;;;;;2.38;1.50;;;;;;;;;;6263209;28;20028;-76
2022/05/31 12:17:16;;;;;;;4.28;1.90;;;;;;;;;;6270248;28;20377;-76
2022/05/31 12:20:22;;;;;;;2.50;1.60;;;;;;;;;;6270143;28;20041;-76
2022/05/31 12:23:34;;;;;;;4.32;1.90;;;;;;;;;;6269007;28;20483;-76
2022/05/31 12:26:52;;;;;;;3.22;1.70;;;;;;;;;;6266942;28;20013;-76
2022/05/31 12:30:02;;;;;;;3.70;1.73;;;;;;;;;;6269976;28;20084;-76
2022/05/31 12:33:22;;;;;;;3.60;1.83;;;;;;;;;;6266622;28;20025;-76
2022/05/31 12:36:23;;;;;;;4.68;2.25;;;;;;;;;;6259575;28;20481;-76
2022/05/31 12:39:27;;;;;;;;;;;;;;;;;;6263205;28;20100;-76
2022/05/31 12:42:28;;;;;;;2.53;1.63;;;;;;;;;;6263726;28;19912;-76
2022/05/31 12:45:34;;;;;;;2.00;1.57;;;;;;;;;;6262914;28;20021;-76
2022/05/31 12:48:34;;;;;;;3.20;1.70;;;;;;;;;;6273415;28;20086;-76
2022/05/31 12:51:34;;;;;;;;;;;;;;;;;;6268814;28;20358;-76
2022/05/31 12:54:45;;;;;;;3.13;1.70;;;;;;;;;;6266999;28;19912;-76
2022/05/31 13:01:04;;;;;;;3.78;1.40;;;;;;;;;;6268067;28;19909;-76
2022/05/31 13:04:20;;;;;;;1.50;1.40;;;;;;;;;;6268942;28;20120;-76
2022/05/31 13:07:20;;;;;;;2.50;1.77;;;;;;;;;;6265370;28;20017;-76
2022/05/31 13:10:35;;;;;;;6.47;2.03;;;;;;;;;;6267941;28;20473;-76
2022/05/31 13:20:46;;;;;;;4.68;1.58;;;;;;;;;;6265719;28;20056;-77
2022/05/31 13:23:47;;;;;;;2.67;1.30;;;;;;;;;;6253990;28;20017;-77
2022/05/31 13:26:48;;;;;;;2.13;1.60;;;;;;;;;;6264918;28;20404;-78
2022/05/31 13:30:07;;;;;;;1.67;1.38;;;;;;;;;;6259245;28;20025;-77
2022/05/31 13:33:26;;;;;;;3.33;1.50;;;;;;;;;;6273820;28;20025;-78
2022/05/31 13:36:28;;;;;;;4.70;1.73;;;;;;;;;;6259797;28;20163;-76
2022/05/31 13:39:28;;;;;;;7.28;1.92;;;;;;;;;;6264778;28;20036;-76
2022/05/31 13:42:36;;;;;;;4.93;2.00;;;;;;;;;;6264412;28;20052;-76
2022/05/31 13:45:36;;;;;;;2.95;1.40;;;;;;;;;;6284532;28;20035;-76
2022/05/31 13:48:38;;;;;;;3.00;1.42;;;;;;;;;;6261657;28;20025;-76
2022/05/31 13:51:47;;;;;;;4.03;1.40;;;;;;;;;;6269088;28;20036;-76
2022/05/31 13:54:48;;;;;;;4.22;1.77;;;;;;;;;;6276804;28;20082;-76
2022/05/31 13:57:48;;;;;;;;;;;;;;;;;;6279099;28;20029;-77
2022/05/31 14:00:48;;;;;;;3.72;2.10;;;;;;;;;;6278342;28;19913;-76
2022/05/31 14:03:48;;;;;;;;;;;;;;;;;;6273264;28;20025;-77
2022/05/31 14:06:50;;;;;;;2.50;1.65;;;;;;;;;;6263521;28;19959;-77
2022/05/31 14:09:54;;;;;;;1.80;1.52;;;;;;;;;;6265443;28;20017;-77
2022/05/31 14:13:00;;;;;;;3.05;2.13;;;;;;;;;;6268073;28;20120;-76
2022/05/31 14:16:11;;;;;;;4.15;2.25;;;;;;;;;;6267525;28;20024;-76
2022/05/31 14:19:16;;;;;;;3.72;2.50;;;;;;;;;;6271730;28;20037;-76
2022/05/31 14:22:21;;;;;;;4.93;1.95;;;;;;;;;;6258667;28;20032;-76
2022/05/31 14:25:23;;;;;;;6.20;2.10;;;;;;;;;;6251380;28;20021;-77
2022/05/31 14:28:25;;;;;;;4.07;2.10;;;;;;;;;;6261962;28;20021;-76
2022/05/31 14:31:25;;;;;;;;;;;;;;;;;;6259776;28;20025;-77
2022/05/31 14:34:27;;;;;;;2.67;1.93;;;;;;;;;;6263849;28;19962;-77
2022/05/31 14:37:37;;;;;;;2.40;1.85;;;;;;;;;;6254685;28;20393;-76
2022/05/31 14:40:39;;;;;;;2.08;1.83;;;;;;;;;;6261170;28;20470;-76
2022/05/31 14:43:52;;;;;;;5.68;2.33;;;;;;;;;;6253437;28;20084;-76
2022/05/31 14:47:04;;;;;;;3.33;2.20;;;;;;;;;;6256047;28;20635;-76
2022/05/31 14:50:10;;;;;;;4.70;2.30;;;;;;;;;;6256377;28;20021;-76
2022/05/31 14:53:15;;;;;;;5.55;2.20;;;;;;;;;;6273257;28;20037;-76
2022/05/31 14:56:19;;;;;;;5.07;2.03;;;;;;;;;;6272012;28;20013;-76
2022/05/31 14:59:20;;;;;;;4.85;2.60;;;;;;;;;;6264787;28;20009;-76
2022/05/31 15:02:23;;;;;;;2.28;1.98;;;;;;;;;;6268158;28;20017;-77
2022/05/31 15:05:25;;;;;;;3.38;2.08;;;;;;;;;;6265483;28;20025;-76
2022/05/31 15:08:30;;;;;;;3.72;2.35;;;;;;;;;;6266971;28;20033;-76
2022/05/31 15:21:38;;;;;;;7.10;3.33;;;;;;;;;;6262442;28;20412;-77
2022/05/31 15:24:42;;;;;;;3.08;1.83;;;;;;;;;;6256657;28;20397;-77
2022/05/31 15:27:42;;;;;;;3.50;2.00;;;;;;;;;;6257661;28;20033;-76
2022/05/31 15:30:43;;;;;;;6.93;2.63;;;;;;;;;;6255194;28;20029;-76
2022/05/31 15:33:43;;;;;;;2.70;1.90;;;;;;;;;;6261705;28;20078;-76
2022/05/31 15:36:44;;;;;;;3.97;2.70;;;;;;;;;;6273049;28;20067;-76
2022/05/31 15:39:45;;;;;;;3.63;2.40;;;;;;;;;;6273645;28;20052;-76
2022/05/31 15:42:45;;;;;;;7.53;2.30;;;;;;;;;;6272333;28;20028;-77
2022/05/31 15:45:45;;;;;;;5.93;2.47;;;;;;;;;;6270999;28;20031;-77
2022/05/31 15:48:46;;;;;;;5.50;2.17;;;;;;;;;;6269442;28;20025;-77
2022/05/31 15:51:47;;;;;;;5.13;2.33;;;;;;;;;;6264645;28;20025;-77
2022/05/31 15:54:55;;;;;;;4.03;1.88;;;;;;;;;;6266462;28;20044;-77
2022/05/31 15:57:55;;;;;;;4.70;2.40;;;;;;;;;;6267763;28;20027;-77
2022/05/31 16:00:56;;;;;;;4.07;2.17;;;;;;;;;;6270415;28;20096;-77
2022/05/31 16:03:56;;;;;;;7.30;2.37;;;;;;;;;;6272210;28;20396;-77
2022/05/31 16:06:56;;;;;;;4.40;2.83;;;;;;;;;;6263180;28;20028;-77
2022/05/31 16:09:57;;;;;;;5.20;2.50;;;;;;;;;;6259734;28;20028;-80
2022/05/31 16:12:57;;;;;;;7.33;4.27;;;;;;;;;;6258505;28;20052;-77
2022/05/31 16:15:58;;;;;;;8.00;3.57;;;;;;;;;;6270869;28;20029;-76
2022/05/31 16:18:59;;;;;;;4.40;2.42;;;;;;;;;;6272322;28;20056;-76
2022/05/31 16:21:59;;;;;;;8.80;2.50;;;;;;;;;;6268393;28;20021;-77
2022/05/31 16:25:01;;;;;;;5.73;2.50;;;;;;;;;;6265852;28;20052;-76
2022/05/31 16:28:01;;;;;;;3.53;2.05;;;;;;;;;;6266224;28;20090;-77
2022/05/31 16:31:01;;;;;;;3.97;2.57;;;;;;;;;;6264336;28;20025;-76
2022/05/31 16:34:01;;;;;;;4.83;2.57;;;;;;;;;;6267091;28;20024;-76
2022/05/31 16:41:10;;;;;;;4.50;2.20;;;;;;;;;;6266506;28;20399;-76
2022/05/31 16:43:53;;;;;;;3.58;2.30;;;;;;;;;;6264496;28;20020;-76
2022/05/31 16:46:54;;;;;;;4.43;2.90;;;;;;;;;;6268858;28;20025;-76
2022/05/31 16:49:54;;;;;;;4.22;1.95;;;;;;;;;;6262797;28;20017;-77
2022/05/31 16:52:54;;;;;;;6.70;2.40;;;;;;;;;;6265356;28;20031;-77
2022/05/31 16:55:56;;;;;;;4.03;2.50;;;;;;;;;;6260672;28;20536;-76
2022/05/31 16:58:56;;;;;;;5.25;2.63;;;;;;;;;;6254307;28;20078;-77
2022/05/31 17:01:56;;;;;;;5.97;3.20;;;;;;;;;;6262002;28;20017;-77
2022/05/31 17:04:57;;;;;;;6.47;2.20;;;;;;;;;;6251251;28;20021;-77
2022/05/31 17:14:36;;;;;;;3.05;2.33;;;;;;;;;;6253056;28;20045;-77
2022/05/31 17:17:39;;;;;;;5.32;2.72;;;;;;;;;;6256849;28;20071;-77
2022/05/31 17:20:40;;;;;;;6.60;2.35;;;;;;;;;;6252620;28;20060;-77
2022/05/31 17:23:43;;;;;;;3.85;2.53;;;;;;;;;;6263814;28;20082;-77
2022/05/31 17:26:43;;;;;;;2.67;2.17;;;;;;;;;;6264831;28;20815;-76
2022/05/31 17:29:43;;;;;;;3.10;2.30;;;;;;;;;;6269190;28;20013;-76
2022/05/31 17:32:43;;;;;;;3.88;2.67;;;;;;;;;;6270925;28;20475;-77
2022/05/31 17:35:45;;;;;;;2.55;2.33;;;;;;;;;;6259620;28;20013;-77
2022/05/31 17:38:46;;;;;;;;;;;;;;;;;;6260729;28;20170;-77
2022/05/31 17:41:53;;;;;;;4.47;3.20;;;;;;;;;;6258291;28;19913;-76
2022/05/31 17:44:53;;;;;;;3.65;2.75;;;;;;;;;;6258208;28;20027;-76
2022/05/31 17:47:53;;;;;;;8.00;3.25;;;;;;;;;;6256969;28;20014;-76
2022/05/31 17:50:53;;;;;;;5.50;2.97;;;;;;;;;;6267646;28;20102;-76
2022/05/31 17:53:54;;;;;;;6.82;3.45;;;;;;;;;;6258828;28;20027;-76
2022/05/31 17:56:54;;;;;;;5.13;2.70;;;;;;;;;;6264002;28;20032;-77
2022/05/31 17:59:54;;;;;;;4.40;3.27;;;;;;;;;;6273187;28;20013;-77
2022/05/31 18:02:54;;;;;;;5.00;2.60;;;;;;;;;;6262432;28;20021;-77
2022/05/31 18:05:58;;;;;;;5.18;3.58;;;;;;;;;;6274298;28;20048;-77
2022/05/31 18:09:00;;;;;;;8.32;3.63;;;;;;;;;;6271552;28;20029;-77
2022/05/31 18:12:01;;;;;;;8.05;3.40;;;;;;;;;;6262295;28;20492;-77
2022/05/31 18:15:01;;;;;;;6.17;3.10;;;;;;;;;;6267261;28;20017;-77
2022/05/31 18:18:02;;;;;;;8.07;3.33;;;;;;;;;;6270253;28;20017;-78
2022/05/31 18:21:02;;;;;;;4.33;3.57;;;;;;;;;;6258527;28;20447;-78
2022/05/31 18:24:11;;;;;;;8.60;3.17;;;;;;;;;;6263088;28;20064;-77
2022/05/31 18:27:12;;;;;;;7.57;3.22;;;;;;;;;;6266116;28;20056;-76
2022/05/31 18:30:14;;;;;;;8.60;3.40;;;;;;;;;;6263634;28;20034;-76
2022/05/31 18:33:14;;;;;;;5.97;3.05;;;;;;;;;;6264490;28;20013;-76
2022/05/31 18:36:23;;;;;;;6.25;3.95;;;;;;;;;;6263259;28;20064;-77
2022/05/31 18:42:35;;;;;;;6.63;3.92;;;;;;;;;;6261980;28;20063;-77
2022/05/31 18:45:35;;;;;;;9.15;4.65;;;;;;;;;;6272047;28;20031;-77
2022/05/31 18:48:37;;;;;;;8.73;5.87;;;;;;;;;;6264133;28;20139;-77
2022/05/31 18:51:37;;;;;;;9.30;3.95;;;;;;;;;;6266364;28;20553;-76
2022/05/31 18:54:37;;;;;;;8.53;3.90;;;;;;;;;;6270608;28;20098;-77
2022/05/31 18:57:42;;;;;;;9.40;4.30;;;;;;;;;;6269928;28;20025;-77
2022/05/31 19:00:42;;;;;;;9.52;4.50;;;;;;;;;;6265444;28;20013;-77
2022/05/31 19:03:43;;;;;;;8.13;4.37;;;;;;;;;;6269508;28;20044;-77
2022/05/31 19:06:43;;;;;;;9.07;5.20;;;;;;;;;;6262408;28;20025;-76
2022/05/31 19:09:44;;;;;;;14.27;4.93;;;;;;;;;;6269413;28;20027;-75
2022/05/31 19:12:45;;;;;;;5.87;3.93;;;;;;;;;;6267377;28;20017;-75